createdAt,value
2023-03-27T00:01:02.488Z,74.88
2023-03-27T00:06:03.396Z,74.95
2023-03-27T00:10:57.340Z,75.20
2023-03-27T00:15:53.943Z,75.21
2023-03-27T00:20:46.777Z,75.16
2023-03-27T00:25:40.935Z,75.34
2023-03-27T00:30:33.860Z,75.40
2023-03-27T00:35:29.817Z,75.30
2023-03-27T00:40:23.304Z,75.29
2023-03-27T00:45:21.930Z,75.34
2023-03-27T00:50:21.710Z,75.75
2023-03-27T00:55:20.146Z,75.36
2023-03-27T01:00:17.123Z,75.56
2023-03-27T01:05:11.617Z,75.31
2023-03-27T01:10:06.997Z,75.74
2023-03-27T01:15:18.595Z,75.30
2023-03-27T01:20:47.136Z,75.58
2023-03-27T01:25:58.873Z,75.52
2023-03-27T01:30:59.867Z,75.53
2023-03-27T01:36:14.922Z,75.62
2023-03-27T01:41:35.382Z,75.93
2023-03-27T01:46:36.888Z,75.59
2023-03-27T01:51:39.604Z,75.76
2023-03-27T01:56:39.488Z,75.82
2023-03-27T02:01:39.737Z,76.09
2023-03-27T02:06:38.987Z,75.71
2023-03-27T02:11:38.020Z,75.88
2023-03-27T02:16:35.706Z,75.73
2023-03-27T02:21:31.529Z,75.83
2023-03-27T02:26:25.407Z,75.97
2023-03-27T02:31:37.529Z,75.89
2023-03-27T02:36:55.451Z,76.12
2023-03-27T02:42:04.525Z,76.12
2023-03-27T02:47:29.088Z,76.46
2023-03-27T02:52:29.512Z,76.63
2023-03-27T02:57:28.009Z,76.32
2023-03-27T03:02:41.405Z,76.34
2023-03-27T03:07:36.274Z,76.27
2023-03-27T03:12:29.106Z,76.38
2023-03-27T03:17:22.268Z,76.04
2023-03-27T03:22:15.613Z,76.42
2023-03-27T03:27:08.856Z,76.39
2023-03-27T03:32:23.425Z,76.04
2023-03-27T03:37:17.629Z,76.19
2023-03-27T03:42:22.895Z,76.35
2023-03-27T03:47:18.371Z,76.29
2023-03-27T03:52:11.233Z,76.56
2023-03-27T03:57:05.020Z,76.50
2023-03-27T04:01:59.436Z,76.48
2023-03-27T04:06:58.494Z,76.35
2023-03-27T04:11:54.926Z,76.39
2023-03-27T04:17:09.696Z,76.64
2023-03-27T04:22:03.588Z,76.77
2023-03-27T04:27:01.338Z,77.04
2023-03-27T04:32:09.653Z,77.39
2023-03-27T04:37:05.744Z,77.37
2023-03-27T04:41:59.540Z,77.63
2023-03-27T04:46:53.776Z,77.66
2023-03-27T04:51:48.202Z,77.75
2023-03-27T04:56:43.048Z,77.82
2023-03-27T05:01:36.419Z,77.32
2023-03-27T05:06:47.436Z,77.59
2023-03-27T05:11:42.487Z,77.59
2023-03-27T05:16:36.235Z,77.73
2023-03-27T05:21:31.029Z,77.68
2023-03-27T05:26:24.074Z,77.86
2023-03-27T05:31:22.479Z,77.62
2023-03-27T05:36:23.289Z,77.91
2023-03-27T05:41:16.980Z,77.63
2023-03-27T05:46:13.645Z,77.52
2023-03-27T05:51:18.805Z,77.43
2023-03-27T05:56:14.454Z,77.49
2023-03-27T06:01:18.947Z,77.28
2023-03-27T06:06:13.812Z,76.61
2023-03-27T06:11:13.554Z,76.88
2023-03-27T06:16:15.689Z,76.85
2023-03-27T06:21:08.671Z,77.02
2023-03-27T06:26:02.108Z,77.12
2023-03-27T06:30:58.240Z,77.75
2023-03-27T06:36:00.847Z,77.87
2023-03-27T06:40:59.787Z,78.40
2023-03-27T06:46:07.128Z,78.59
2023-03-27T06:51:27.140Z,78.91
2023-03-27T06:56:20.396Z,78.62
2023-03-27T07:01:32.523Z,77.97
2023-03-27T07:06:40.685Z,77.29
2023-03-27T07:11:36.209Z,76.60
2023-03-27T07:16:33.963Z,76.53
2023-03-27T07:21:26.902Z,76.01
2023-03-27T07:26:22.973Z,75.85
2023-03-27T07:36:45.070Z,74.49
2023-03-27T07:41:38.316Z,72.79
2023-03-27T07:46:53.731Z,70.70
2023-03-27T07:51:47.468Z,67.45
2023-03-27T07:56:43.070Z,64.10
2023-03-27T08:01:54.397Z,64.14
2023-03-27T08:06:51.570Z,64.15
2023-03-27T08:11:46.843Z,63.49
2023-03-27T08:16:41.908Z,64.16
2023-03-27T08:21:35.515Z,65.16
2023-03-27T08:26:28.912Z,65.91
2023-03-27T08:31:24.226Z,66.79
2023-03-27T08:36:20.186Z,66.75
2023-03-27T08:41:30.800Z,67.13
2023-03-27T08:46:59.339Z,67.16
2023-03-27T08:51:56.949Z,67.46
2023-03-27T08:56:51.702Z,67.35
2023-03-27T09:01:59.924Z,67.24
2023-03-27T09:07:08.274Z,66.77
2023-03-27T09:12:40.548Z,66.57
2023-03-27T09:17:40.559Z,66.72
2023-03-27T09:22:45.001Z,66.17
2023-03-27T09:27:45.843Z,66.19
2023-03-27T09:33:03.635Z,66.04
2023-03-27T09:38:03.725Z,65.42
2023-03-27T09:43:01.290Z,65.19
2023-03-27T09:47:58.157Z,64.96
2023-03-27T09:52:55.310Z,64.84
2023-03-27T09:58:16.886Z,64.48
2023-03-27T10:03:19.826Z,63.97
2023-03-27T10:08:27.292Z,63.25
2023-03-27T10:13:37.468Z,63.53
2023-03-27T10:18:33.143Z,63.39
2023-03-27T10:23:44.294Z,63.30
2023-03-27T10:28:54.133Z,63.52
2023-03-27T10:33:51.186Z,63.53
2023-03-27T10:39:15.480Z,63.55
2023-03-27T10:44:29.179Z,63.00
2023-03-27T10:49:34.687Z,62.46
2023-03-27T10:54:43.890Z,62.90
2023-03-27T11:00:07.580Z,62.13
2023-03-27T11:05:36.461Z,61.74
2023-03-27T11:10:42.141Z,60.68
2023-03-27T11:15:43.473Z,60.60
2023-03-27T11:21:28.722Z,59.83
2023-03-27T11:26:39.626Z,59.46
2023-03-27T11:31:46.523Z,59.15
2023-03-27T11:36:57.452Z,58.41
2023-03-27T11:42:05.342Z,57.59
2023-03-27T11:47:29.958Z,55.87
2023-03-27T11:53:01.508Z,55.51
2023-03-27T11:58:33.176Z,55.79
2023-03-27T12:04:00.250Z,56.28
2023-03-27T12:09:27.816Z,56.33
2023-03-27T12:15:14.012Z,56.16
2023-03-27T12:20:52.762Z,56.23
2023-03-27T12:26:27.382Z,56.00
2023-03-27T12:31:49.458Z,56.28
2023-03-27T12:36:48.337Z,56.07
2023-03-27T12:41:45.682Z,54.80
2023-03-27T12:47:18.271Z,54.97
2023-03-27T12:52:12.995Z,54.99
2023-03-27T12:57:19.324Z,54.51
2023-03-27T13:02:16.766Z,54.24
2023-03-27T13:07:44.841Z,53.76
2023-03-27T13:13:00.745Z,54.22
2023-03-27T13:18:43.193Z,54.56
2023-03-27T13:24:00.710Z,53.92
2023-03-27T13:28:56.674Z,53.94
2023-03-27T13:34:12.470Z,54.06
2023-03-27T13:39:08.033Z,54.26
2023-03-27T13:44:02.322Z,53.93
2023-03-27T13:49:27.346Z,54.24
2023-03-27T13:54:47.724Z,54.06
2023-03-27T13:59:53.032Z,54.09
2023-03-27T14:05:43.730Z,54.73
2023-03-27T14:11:01.336Z,55.07
2023-03-27T14:16:13.686Z,55.44
2023-03-27T14:21:13.873Z,55.63
2023-03-27T14:26:21.498Z,55.94
2023-03-27T14:31:19.105Z,55.73
2023-03-27T14:36:30.281Z,56.14
2023-03-27T14:41:25.686Z,56.51
2023-03-27T14:46:24.422Z,56.58
2023-03-27T14:51:21.858Z,57.11
2023-03-27T14:56:37.933Z,57.54
2023-03-27T15:01:55.822Z,58.21
2023-03-27T15:06:50.209Z,58.50
2023-03-27T15:12:04.297Z,59.07
2023-03-27T15:17:09.369Z,59.71
2023-03-27T15:22:07.740Z,59.98
2023-03-27T15:27:02.026Z,60.14
2023-03-27T15:31:59.846Z,60.38
2023-03-27T15:37:00.455Z,60.57
2023-03-27T15:41:57.193Z,60.91
2023-03-27T15:46:54.421Z,60.41
2023-03-27T15:51:47.294Z,60.18
2023-03-27T15:56:44.707Z,60.14
2023-03-27T16:01:44.197Z,59.98
2023-03-27T16:06:41.048Z,60.00
2023-03-27T16:11:45.911Z,59.77
2023-03-27T16:16:38.751Z,60.04
2023-03-27T16:21:36.238Z,60.18
2023-03-27T16:26:31.837Z,59.90
2023-03-27T16:31:24.881Z,59.86
2023-03-27T16:36:21.475Z,59.79
2023-03-27T16:41:16.167Z,59.92
2023-03-27T16:46:18.339Z,60.28
2023-03-27T16:51:11.352Z,60.14
2023-03-27T16:56:05.211Z,60.50
2023-03-27T17:00:58.547Z,60.76
2023-03-27T17:05:51.946Z,60.82
2023-03-27T17:10:45.900Z,61.21
2023-03-27T17:15:40.408Z,61.13
2023-03-27T17:20:33.393Z,61.73
2023-03-27T17:25:26.558Z,61.82
2023-03-27T17:30:30.662Z,61.79
2023-03-27T17:35:27.923Z,61.93
2023-03-27T17:40:20.736Z,62.23
2023-03-27T17:45:13.549Z,62.00
2023-03-27T17:50:07.002Z,61.86
2023-03-27T17:55:00.035Z,61.75
2023-03-27T17:59:52.957Z,61.88
2023-03-27T18:04:47.982Z,61.72
2023-03-27T18:09:40.798Z,61.78
2023-03-27T18:14:33.659Z,61.68
2023-03-27T18:19:26.523Z,61.74
2023-03-27T18:24:19.466Z,61.49
2023-03-27T18:29:12.463Z,61.37
2023-03-27T18:34:05.265Z,60.94
2023-03-27T18:38:58.646Z,61.06
2023-03-27T18:43:51.492Z,60.55
2023-03-27T18:48:45.624Z,59.85
2023-03-27T18:53:38.441Z,59.57
2023-03-27T18:58:31.276Z,59.35
2023-03-27T19:03:25.957Z,59.12
2023-03-27T19:08:20.066Z,58.98
2023-03-27T19:13:12.990Z,59.07
2023-03-27T19:18:30.089Z,58.77
2023-03-27T19:23:41.511Z,58.77
2023-03-27T19:28:34.354Z,58.05
2023-03-27T19:33:28.207Z,57.83
2023-03-27T19:38:21.617Z,58.05
2023-03-27T19:43:15.803Z,57.93
2023-03-27T19:48:08.924Z,58.20
2023-03-27T19:53:08.757Z,58.38
2023-03-27T19:58:02.106Z,58.04
2023-03-27T20:02:55.155Z,58.12
2023-03-27T20:07:48.009Z,58.12
2023-03-27T20:12:41.321Z,58.26
2023-03-27T20:17:34.590Z,58.38
2023-03-27T20:22:29.727Z,58.52
2023-03-27T20:27:23.186Z,58.55
2023-03-27T20:32:16.353Z,58.64
2023-03-27T20:37:12.157Z,58.78
2023-03-27T20:42:31.072Z,59.23
2023-03-27T20:47:23.909Z,58.94
2023-03-27T20:52:22.937Z,58.86
2023-03-27T20:57:16.225Z,58.78
2023-03-27T21:02:16.841Z,58.95
2023-03-27T21:07:09.758Z,58.71
2023-03-27T21:12:02.912Z,58.59
2023-03-27T21:16:55.916Z,58.46
2023-03-27T21:21:49.878Z,58.43
2023-03-27T21:26:42.984Z,58.23
2023-03-27T21:31:36.157Z,58.27
2023-03-27T21:36:29.881Z,58.38
2023-03-27T21:41:23.910Z,58.33
2023-03-27T21:46:17.421Z,58.32
2023-03-27T21:51:10.412Z,58.33
2023-03-27T21:56:03.864Z,58.50
2023-03-27T22:00:58.348Z,58.35
2023-03-27T22:05:57.775Z,58.60
2023-03-27T22:10:59.537Z,58.63
2023-03-27T22:15:52.434Z,58.82
2023-03-27T22:20:45.261Z,58.74
2023-03-27T22:25:38.047Z,59.14
2023-03-27T22:30:30.920Z,59.33
2023-03-27T22:35:23.815Z,59.26
2023-03-27T22:40:16.773Z,59.76
2023-03-27T22:45:10.489Z,59.87
2023-03-27T22:50:05.513Z,60.21
2023-03-27T22:54:58.288Z,60.28
2023-03-27T22:59:51.409Z,60.51
2023-03-27T23:04:44.232Z,60.59
2023-03-27T23:09:37.198Z,60.74
2023-03-27T23:14:30.002Z,60.84
2023-03-27T23:19:22.831Z,61.14
2023-03-27T23:24:15.988Z,61.41
2023-03-27T23:29:08.958Z,61.79
2023-03-27T23:34:01.828Z,61.87
2023-03-27T23:38:56.623Z,61.97
2023-03-27T23:43:49.547Z,61.87
2023-03-27T23:48:44.443Z,62.10
2023-03-27T23:53:37.871Z,62.16
2023-03-27T23:58:32.747Z,62.40
